Time;durP1;ratioP1;P1;durP2;ratioP2;P2;SDS_P1;SDS_P2;PMS_P1;PMS_P2;Temp;Humidity;BMP_temperature;BMP_pressure;BME280_temperature;BME280_humidity;BME280_pressure;Samples;Min_cycle;Max_cycle;Signal;HPM_P1;HPM_P2
2023/01/29 00:00:08;;;;;;;;;;;3.40;87.50;;;3.89;54.10;99833.47;5005862;28;114949;-74
2023/01/29 00:02:35;;;;;;;;;;;3.40;87.30;;;3.89;54.38;99832.66;5022251;28;113643;-74
2023/01/29 00:05:04;;;;;;;;;;;3.40;87.40;;;3.88;53.69;99844.66;5034602;28;123798;-76
2023/01/29 00:07:30;;;;;;;;;;;3.40;87.30;;;3.87;53.67;99840.25;5007135;28;124558;-72
2023/01/29 00:09:57;;;;;;;;;;;3.40;87.30;;;3.85;53.63;99843.25;5049223;27;114283;-74
2023/01/29 00:12:23;;;;;;;;;;;3.40;87.20;;;3.86;53.51;99833.13;5023114;27;113508;-74
2023/01/29 00:14:49;;;;;;;;;;;3.40;87.10;;;3.84;53.95;99846.22;5017716;28;124323;-74
2023/01/29 00:17:16;;;;;;;;;;;3.40;87.10;;;3.81;53.96;99850.25;5012833;27;124442;-73
2023/01/29 00:19:42;;;;;;;;;;;3.40;87.10;;;3.81;54.32;99844.78;5010257;28;114662;-73
2023/01/29 00:22:08;;;;;;;;;;;3.40;87.10;;;3.79;54.24;99827.84;4999323;28;113707;-72
2023/01/29 00:24:34;;;;;;;;;;;3.40;87.10;;;3.79;54.36;99838.75;5025417;28;123525;-73
2023/01/29 00:27:01;;;;;;;;;;;3.40;87.10;;;3.81;53.89;99831.13;4993950;28;123535;-73
2023/01/29 00:29:27;;;;;;;;;;;3.40;87.10;;;3.83;53.85;99833.63;5030625;27;114483;-72
2023/01/29 00:31:53;;;;;;;;;;;3.40;87.20;;;3.85;53.89;99840.53;5013643;27;113752;-73
2023/01/29 00:34:21;;;;;;;;;;;3.40;87.10;;;3.85;53.87;99837.78;5007909;28;124358;-73
2023/01/29 00:36:48;;;;;;;;;;;3.40;87.10;;;3.85;53.71;99834.22;4992512;28;122927;-73
2023/01/29 00:39:14;;;;;;;;;;;3.40;87.00;;;3.84;53.76;99830.66;5000124;28;113874;-73
2023/01/29 00:49:58;;;;;;;;;;;3.40;87.00;;;3.78;53.97;99834.34;5030313;28;114923;-73
2023/01/29 00:52:24;;;;;;;;;;;3.30;87.00;;;3.79;53.42;99833.28;5009106;28;112985;-74
2023/01/29 00:54:51;;;;;;;;;;;3.30;87.10;;;3.78;53.67;99831.63;5025633;27;124521;-74
2023/01/29 00:57:18;;;;;;;;;;;3.30;87.00;;;3.78;53.57;99828.06;5017712;27;124516;-76
2023/01/29 00:59:45;;;;;;;;;;;3.30;87.10;;;3.78;53.63;99833.53;5001850;28;114784;-73
2023/01/29 01:04:56;;;;;;;;;;;3.30;87.10;;;3.79;53.86;99826.97;5008721;27;124984;-74
2023/01/29 01:07:23;;;;;;;;;;;3.30;87.10;;;3.80;53.80;99829.47;5028078;27;122942;-73
2023/01/29 01:12:37;;;;;;;;;;;3.30;87.00;;;3.79;53.41;99826.97;5027062;28;114044;-74
2023/01/29 01:15:04;;;;;;;;;;;3.30;87.00;;;3.78;53.78;99826.16;5019699;27;124128;-74
2023/01/29 01:17:30;;;;;;;;;;;3.30;86.90;;;3.78;54.10;99834.34;5017825;28;123853;-74
2023/01/29 01:19:56;;;;;;;;;;;3.30;86.90;;;3.76;53.47;99839.22;5001484;28;114126;-73
2023/01/29 01:22:22;;;;;;;;;;;3.30;86.80;;;3.74;53.84;99825.81;5000275;28;113182;-74
2023/01/29 01:24:49;;;;;;;;;;;3.30;86.80;;;3.75;53.77;99823.91;5006066;28;124232;-73
2023/01/29 01:27:16;;;;;;;;;;;3.30;86.80;;;3.74;53.58;99819.53;4997511;28;122938;-73
2023/01/29 01:29:42;;;;;;;;;;;3.30;86.80;;;3.72;53.82;99827.94;5018217;27;114628;-73
2023/01/29 01:32:08;;;;;;;;;;;3.30;86.80;;;3.70;53.41;99823.81;5024479;28;113754;-73
2023/01/29 01:34:35;;;;;;;;;;;3.30;86.80;;;3.69;53.46;99827.63;5001218;28;124513;-73
2023/01/29 01:37:01;;;;;;;;;;;3.20;86.70;;;3.69;53.37;99822.16;5021417;28;124122;-74
2023/01/29 01:39:27;;;;;;;;;;;3.20;86.80;;;3.69;53.74;99822.16;5014560;27;113499;-73
2023/01/29 01:41:54;;;;;;;;;;;3.20;86.80;;;3.68;53.82;99823.19;5007518;28;113881;-74
2023/01/29 01:44:50;;;;;;;;;;;3.20;86.70;;;3.68;53.53;99829.53;5008191;28;123926;-73
2023/01/29 01:47:23;;;;;;;;;;;3.20;86.70;;;3.61;53.55;99820.63;5028378;27;123091;-74
2023/01/29 01:49:49;;;;;;;;;;;3.10;86.60;;;3.56;53.96;99823.25;5029873;27;115350;-73
2023/01/29 01:52:16;;;;;;;;;;;3.20;86.60;;;3.52;54.11;99820.19;5010370;28;113836;-74
2023/01/29 01:54:43;;;;;;;;;;;3.10;86.50;;;3.50;54.13;99819.56;5009289;28;124316;-74
2023/01/29 01:57:15;;;;;;;;;;;3.10;86.60;;;3.49;53.93;99812.47;5026811;27;123982;-74
2023/01/29 01:59:49;;;;;;;;;;;3.10;86.70;;;3.49;53.80;99815.19;5003583;28;114160;-74
2023/01/29 02:10:45;;;;;;;;;;;3.10;86.90;;;3.54;54.03;99814.44;5018576;28;114870;-73
2023/01/29 02:13:15;;;;;;;;;;;3.10;86.70;;;3.48;53.69;99826.34;5011600;28;112672;-73
2023/01/29 02:15:45;;;;;;;;;;;3.10;86.50;;;3.45;54.18;99833.13;5025946;27;123648;-73
2023/01/29 02:18:13;;;;;;;;;;;3.10;86.50;;;3.43;53.92;99828.97;5058081;27;124305;-73
2023/01/29 02:20:41;;;;;;;;;;;3.00;86.30;;;3.40;53.99;99824.81;5055675;27;114566;-73
2023/01/29 02:23:26;;;;;;;;;;;4.40;87.80;;;3.41;53.87;99826.50;5026397;28;113983;-73
2023/01/29 02:26:11;;;;;;;;;;;3.00;87.20;;;3.39;54.13;99831.38;5004245;27;123211;-74
2023/01/29 02:28:52;;;;;;;;;;;2.90;86.40;;;3.37;53.58;99830.75;5037935;27;124408;-73
2023/01/29 02:31:35;;;;;;;;;;;2.90;86.40;;;3.31;53.67;99832.56;5054355;27;114637;-73
2023/01/29 02:34:12;;;;;;;;;;;2.90;86.40;;;3.35;53.96;99832.06;5055296;27;113615;-73
2023/01/29 02:37:08;;;;;;;;;;;2.90;86.40;;;3.34;53.65;99831.25;5038497;27;124098;-73
2023/01/29 02:39:46;;;;;;;;;;;2.90;86.40;;;3.31;53.54;99823.53;5030264;27;124072;-73
2023/01/29 02:42:34;;;;;;;;;;;2.90;86.40;;;3.23;53.58;99832.91;5042795;27;115197;-73
2023/01/29 02:45:25;;;;;;;;;;;2.80;86.20;;;3.21;53.83;99828.78;5022197;27;115698;-74
2023/01/29 02:47:59;;;;;;;;;;;2.70;86.30;;;3.20;54.06;99824.38;5033027;28;125000;-74
2023/01/29 02:50:46;;;;;;;;;;;2.70;86.50;;;3.16;54.35;99839.56;5024801;27;123892;-73
2023/01/29 02:53:20;;;;;;;;;;;2.70;86.40;;;3.13;53.84;99823.66;5012873;27;113651;-73
2023/01/29 02:56:00;;;;;;;;;;;2.70;86.50;;;3.10;54.08;99825.81;5015996;28;113612;-73
2023/01/29 02:58:36;;;;;;;;;;;2.60;86.40;;;3.07;54.07;99828.19;5016043;27;124228;-73
2023/01/29 03:01:34;;;;;;;;;;;2.60;86.60;;;3.08;53.66;99817.00;5000334;28;124067;-74
2023/01/29 03:04:05;;;;;;;;;;;2.60;86.60;;;3.03;54.36;99819.63;4987602;28;114324;-73
2023/01/29 03:06:35;;;;;;;;;;;2.60;86.60;;;3.05;53.99;99812.03;5008271;28;113733;-73
2023/01/29 03:09:07;;;;;;;;;;;2.60;86.60;;;3.08;54.31;99827.09;5022132;28;123872;-73
2023/01/29 03:11:44;;;;;;;;;;;2.60;86.70;;;3.09;54.22;99824.16;5007578;27;123990;-73
2023/01/29 03:14:15;;;;;;;;;;;2.60;86.60;;;3.10;54.03;99823.06;5027553;27;114391;-74
2023/01/29 03:16:48;;;;;;;;;;;2.70;86.70;;;3.14;54.21;99828.06;5016326;27;113766;-73
2023/01/29 03:19:38;;;;;;;;;;;2.60;86.60;;;3.17;53.68;99825.69;5010235;27;124370;-73
2023/01/29 03:22:07;;;;;;;;;;;2.60;86.60;;;3.14;53.98;99819.88;5049048;27;124109;-73
2023/01/29 03:33:48;;;;;;;;;;;2.60;86.40;;;3.06;54.04;99821.91;5030272;28;125253;-74
2023/01/29 03:36:22;;;;;;;;;;;2.60;86.40;;;3.07;53.71;99822.72;5012932;28;115381;-74
2023/01/29 03:38:48;;;;;;;;;;;2.60;86.40;;;3.06;53.51;99818.31;5009417;28;114521;-74
2023/01/29 03:41:28;;;;;;;;;;;2.60;86.40;;;3.08;54.01;99817.00;5039400;27;123639;-73
2023/01/29 03:44:17;;;;;;;;;;;2.60;86.40;;;3.05;53.74;99811.22;5010317;28;124670;-74
2023/01/29 03:46:51;;;;;;;;;;;2.60;86.40;;;3.03;54.23;99818.78;4987136;28;113625;-74
2023/01/29 03:49:42;;;;;;;;;;;2.60;86.40;;;3.06;53.85;99812.84;4997990;28;113066;-74
2023/01/29 03:52:15;;;;;;;;;;;2.60;86.40;;;3.07;54.25;99814.53;5017643;28;124792;-74
2023/01/29 03:55:15;;;;;;;;;;;2.60;86.40;;;3.08;53.81;99816.19;5011538;28;123177;-74
2023/01/29 03:57:50;;;;;;;;;;;2.50;86.30;;;3.06;53.66;99815.59;5023435;27;114553;-74
2023/01/29 04:00:20;;;;;;;;;;;2.60;86.50;;;3.07;53.96;99814.53;5038519;27;113497;-73
2023/01/29 04:02:50;;;;;;;;;;;2.60;86.40;;;3.09;53.66;99817.88;5019893;27;124324;-74
2023/01/29 04:05:20;;;;;;;;;;;2.60;86.30;;;3.12;53.48;99813.81;5041699;27;124134;-74
2023/01/29 04:07:50;;;;;;;;;;;2.60;86.40;;;3.15;54.10;99822.38;5015594;27;114044;-78
2023/01/29 04:10:20;;;;;;;;;;;2.70;86.40;;;3.20;53.85;99822.47;5024929;27;113804;-74
2023/01/29 04:12:54;;;;;;;;;;;2.70;86.40;;;3.23;53.50;99824.72;5026640;28;123817;-74
2023/01/29 04:15:21;;;;;;;;;;;2.70;86.20;;;3.21;53.60;99821.41;5005659;28;124346;-76
2023/01/29 04:17:50;;;;;;;;;;;2.70;86.20;;;3.17;53.41;99819.38;4984456;28;113759;-73
2023/01/29 04:20:16;;;;;;;;;;;2.70;85.90;;;3.16;53.60;99815.00;5022456;28;113871;-76
2023/01/29 04:22:48;;;;;;;;;;;2.60;85.80;;;3.17;53.52;99825.69;5001856;28;123708;-73
2023/01/29 04:25:25;;;;;;;;;;;2.70;85.90;;;3.15;53.84;99827.00;5018424;27;124450;-73
2023/01/29 04:28:06;;;;;;;;;;;2.70;85.90;;;3.17;53.78;99822.09;5031001;27;115724;-73
2023/01/29 04:30:51;;;;;;;;;;;2.70;86.10;;;3.16;53.63;99828.66;5018574;27;114914;-73
2023/01/29 04:33:28;;;;;;;;;;;2.60;86.00;;;3.15;53.70;99835.19;5004319;28;124137;-73
2023/01/29 04:36:05;;;;;;;;;;;2.60;86.10;;;3.14;53.66;99826.16;5008311;28;123368;-73
2023/01/29 04:38:56;;;;;;;;;;;2.70;86.20;;;3.19;53.58;99837.19;5000451;28;114186;-73
2023/01/29 04:41:28;;;;;;;;;;;2.70;86.20;;;3.19;53.44;99833.63;5022272;27;113983;-73
2023/01/29 04:44:08;;;;;;;;;;;2.70;86.20;;;3.21;53.24;99828.78;5007512;28;123706;-73
2023/01/29 04:46:37;;;;;;;;;;;2.70;86.10;;;3.21;53.66;99826.88;4997334;28;122492;-73
2023/01/29 04:49:15;;;;;;;;;;;2.70;86.20;;;3.27;53.75;99827.81;5020930;27;114510;-73
2023/01/29 04:51:59;;;;;;;;;;;2.70;86.30;;;3.26;53.55;99823.44;5022913;27;113900;-73
2023/01/29 04:55:00;;;;;;;;;;;2.70;86.20;;;3.29;53.53;99823.78;5007849;28;123146;-73
2023/01/29 04:57:44;;;;;;;;;;;2.80;86.20;;;3.26;53.42;99820.69;5026570;27;124729;-73
2023/01/29 05:00:26;;;;;;;;;;;3.50;86.70;;;3.26;53.58;99823.44;5027332;27;114293;-73
2023/01/29 05:02:52;;;;;;;;;;;2.80;86.00;;;3.24;53.35;99818.19;5016051;28;112816;-73
2023/01/29 05:05:19;;;;;;;;;;;2.80;86.00;;;3.22;53.87;99827.69;5021358;27;124840;-73
2023/01/29 05:07:47;;;;;;;;;;;2.80;85.90;;;3.22;53.36;99824.97;5013405;28;123939;-73
2023/01/29 05:10:17;;;;;;;;;;;2.70;85.90;;;3.22;53.64;99827.69;4996849;27;113353;-73
2023/01/29 05:12:46;;;;;;;;;;;2.70;85.90;;;3.21;53.38;99829.59;5010079;27;113420;-73
2023/01/29 05:15:16;;;;;;;;;;;2.70;85.90;;;3.20;53.64;99835.31;4986078;27;123201;-73
2023/01/29 05:17:43;;;;;;;;;;;2.70;86.00;;;3.19;53.40;99834.47;5017356;27;123900;-73
2023/01/29 05:20:10;;;;;;;;;;;2.70;86.00;;;3.20;53.51;99829.84;5003092;27;115937;-73
2023/01/29 05:22:39;;;;;;;;;;;2.70;86.00;;;3.18;53.50;99826.53;5021682;28;114826;-74
2023/01/29 05:25:29;;;;;;;;;;;2.70;86.10;;;3.21;53.36;99820.56;5008773;28;124697;-73
2023/01/29 05:28:05;;;;;;;;;;;2.60;86.10;;;3.18;53.85;99823.78;4999170;28;124113;-73
2023/01/29 05:30:33;;;;;;;;;;;2.70;86.30;;;3.16;53.51;99837.66;5003329;28;113787;-73
2023/01/29 05:33:00;;;;;;;;;;;2.60;86.20;;;3.16;53.87;99842.31;5000738;28;113679;-73
2023/01/29 05:35:27;;;;;;;;;;;2.60;86.20;;;3.16;53.49;99839.56;4991218;28;124232;-72
2023/01/29 05:37:55;;;;;;;;;;;2.60;86.20;;;3.17;53.67;99835.75;4988161;28;123326;-73
2023/01/29 05:40:23;;;;;;;;;;;2.60;86.30;;;3.16;53.50;99832.22;4977546;28;113563;-73
2023/01/29 05:42:49;;;;;;;;;;;2.60;86.20;;;3.16;53.52;99828.66;4992251;28;113195;-73
2023/01/29 05:45:17;;;;;;;;;;;2.60;86.30;;;3.18;53.56;99824.63;5009584;28;124259;-73
2023/01/29 05:47:44;;;;;;;;;;;2.60;86.30;;;3.22;53.58;99827.69;5012390;28;123984;-73
2023/01/29 05:50:12;;;;;;;;;;;2.70;86.30;;;3.22;53.44;99822.22;5011040;28;113633;-72
2023/01/29 05:52:38;;;;;;;;;;;2.70;86.20;;;3.20;53.19;99814.28;5007469;28;113104;-72
2023/01/29 05:55:05;;;;;;;;;;;2.70;86.00;;;3.19;53.43;99803.59;5033974;27;125480;-72
2023/01/29 05:57:32;;;;;;;;;;;2.60;86.00;;;3.18;53.54;99785.56;5040473;27;123728;-73
2023/01/29 05:59:58;;;;;;;;;;;2.60;86.10;;;3.18;53.35;99780.94;5023764;27;114381;-73
2023/01/29 06:02:24;;;;;;;;;;;2.60;86.10;;;3.21;53.81;99785.06;5008171;28;113714;-73
2023/01/29 06:04:51;;;;;;;;;;;2.70;86.20;;;3.24;53.63;99790.88;5021099;28;124086;-73
2023/01/29 06:07:17;;;;;;;;;;;2.70;86.20;;;3.29;53.27;99795.63;4993755;28;124170;-73
2023/01/29 06:09:44;;;;;;;;;;;2.70;86.10;;;3.32;53.53;99800.59;5015505;28;115415;-73
2023/01/29 06:12:10;;;;;;;;;;;2.80;86.10;;;3.34;53.15;99798.47;5024684;27;114628;-75
2023/01/29 06:14:36;;;;;;;;;;;2.80;86.10;;;3.37;53.63;99803.44;4993968;28;124166;-73
2023/01/29 06:17:03;;;;;;;;;;;2.90;86.00;;;3.37;53.09;99808.91;5023464;28;123574;-73
2023/01/29 06:19:30;;;;;;;;;;;2.80;85.80;;;3.35;53.26;99802.84;5021467;28;114183;-77
2023/01/29 06:21:56;;;;;;;;;;;2.80;85.70;;;3.33;53.25;99807.72;5020399;28;113247;-73
2023/01/29 06:24:22;;;;;;;;;;;2.80;85.60;;;3.31;52.76;99805.25;5021512;28;124777;-73
2023/01/29 06:26:48;;;;;;;;;;;2.80;85.60;;;3.30;52.84;99819.13;5010281;27;123685;-73
2023/01/29 06:29:15;;;;;;;;;;;2.80;85.60;;;3.26;53.16;99810.59;5010804;27;114387;-73
2023/01/29 06:31:42;;;;;;;;;;;2.80;85.50;;;3.25;52.96;99810.81;5017137;28;113760;-73
2023/01/29 06:34:09;;;;;;;;;;;2.80;85.60;;;3.25;53.28;99810.81;5010653;28;123958;-73
2023/01/29 06:36:35;;;;;;;;;;;2.80;85.60;;;3.22;53.33;99812.13;5002603;28;123108;-74
2023/01/29 06:39:02;;;;;;;;;;;2.70;85.40;;;3.20;53.39;99819.75;4978727;28;113808;-73
2023/01/29 06:41:29;;;;;;;;;;;2.70;85.50;;;3.18;53.37;99819.16;4994214;28;113949;-73
2023/01/29 06:43:55;;;;;;;;;;;2.70;85.50;;;3.18;53.02;99821.88;4982704;28;124827;-73
2023/01/29 06:46:21;;;;;;;;;;;2.70;85.60;;;3.17;53.19;99816.66;4987761;28;124099;-73
2023/01/29 06:48:48;;;;;;;;;;;2.70;85.50;;;3.16;53.03;99812.28;4989364;28;113257;-73
2023/01/29 06:51:14;;;;;;;;;;;2.70;85.40;;;3.15;53.09;99818.81;5004900;28;114440;-73
2023/01/29 06:53:40;;;;;;;;;;;2.70;85.40;;;3.13;53.03;99818.22;4997153;28;124437;-73
2023/01/29 06:56:07;;;;;;;;;;;2.70;85.30;;;3.09;53.20;99820.59;5016280;28;124998;-73
2023/01/29 06:58:36;;;;;;;;;;;2.70;85.30;;;3.07;53.01;99820.81;5006464;28;115638;-73
2023/01/29 07:01:07;;;;;;;;;;;2.60;85.30;;;3.07;53.00;99823.56;5014918;28;113956;-73
2023/01/29 07:03:34;;;;;;;;;;;2.60;85.30;;;3.05;53.07;99828.41;4987151;28;124617;-73
2023/01/29 07:06:00;;;;;;;;;;;2.60;85.30;;;3.05;53.13;99828.41;4992059;28;123076;-73
2023/01/29 07:08:27;;;;;;;;;;;2.60;85.30;;;3.05;53.39;99822.94;4990623;28;114686;-73
2023/01/29 07:11:00;;;;;;;;;;;2.60;85.30;;;3.09;53.21;99828.78;4995488;28;112954;-72
2023/01/29 07:13:26;;;;;;;;;;;2.60;85.30;;;3.07;53.12;99829.00;4990016;28;124756;-73
2023/01/29 07:15:52;;;;;;;;;;;2.60;85.40;;;3.07;53.07;99829.00;4992986;28;122851;-72
2023/01/29 07:18:19;;;;;;;;;;;2.60;85.30;;;3.06;53.11;99824.63;4993163;28;114358;-72
2023/01/29 07:20:45;;;;;;;;;;;2.60;85.30;;;3.06;53.19;99829.25;4982085;28;112666;-72
2023/01/29 07:23:12;;;;;;;;;;;2.60;85.30;;;3.05;53.15;99836.59;4988929;28;124331;-73
2023/01/29 07:25:39;;;;;;;;;;;2.60;85.30;;;3.04;52.88;99826.75;4989862;28;123723;-73
2023/01/29 07:28:06;;;;;;;;;;;2.60;85.20;;;3.06;52.66;99837.44;4989967;28;114360;-73
2023/01/29 07:30:33;;;;;;;;;;;2.60;85.20;;;3.05;53.19;99830.31;5008971;28;114135;-70
2023/01/29 07:33:04;;;;;;;;;;;2.60;85.20;;;3.07;53.07;99839.94;4997481;28;124823;-72
2023/01/29 07:35:31;;;;;;;;;;;2.60;85.30;;;3.07;52.85;99837.22;5007620;27;124353;-72
2023/01/29 07:37:57;;;;;;;;;;;2.60;85.30;;;3.07;53.10;99848.13;5035950;27;114367;-72
2023/01/29 07:40:23;;;;;;;;;;;2.60;85.30;;;3.06;53.12;99857.41;5034074;27;113495;-72
2023/01/29 07:42:49;;;;;;;;;;;2.60;85.30;;;3.08;53.15;99855.22;5038625;27;124164;-72
2023/01/29 07:45:16;;;;;;;;;;;2.60;85.30;;;3.09;52.98;99854.19;5029131;27;123586;-71
2023/01/29 07:47:42;;;;;;;;;;;2.60;85.30;;;3.13;53.23;99853.72;5024367;27;114256;-72
2023/01/29 07:50:09;;;;;;;;;;;2.60;85.30;;;3.14;53.18;99858.09;5030500;27;114977;-71
2023/01/29 07:52:35;;;;;;;;;;;2.60;85.30;;;3.15;53.13;99857.03;5023540;27;124331;-72
2023/01/29 07:55:01;;;;;;;;;;;2.60;85.20;;;3.16;52.99;99864.16;5020531;27;124185;-72
2023/01/29 07:57:29;;;;;;;;;;;2.60;85.10;;;3.18;52.58;99859.28;5022016;27;114507;-72
2023/01/29 07:59:55;;;;;;;;;;;2.60;85.20;;;3.20;52.66;99857.97;5039411;27;113791;-72
2023/01/29 08:02:22;;;;;;;;;;;2.70;85.30;;;3.22;53.00;99865.91;5016489;28;123953;-72
2023/01/29 08:04:49;;;;;;;;;;;2.70;85.10;;;3.22;52.98;99863.19;5021829;28;124307;-73
2023/01/29 08:07:15;;;;;;;;;;;2.70;85.10;;;3.20;52.82;99857.97;5042048;27;114556;-72
2023/01/29 08:09:41;;;;;;;;;;;2.70;85.00;;;3.20;52.80;99859.88;5047978;27;114255;-72
2023/01/29 08:12:08;;;;;;;;;;;2.70;85.00;;;3.21;52.65;99859.63;5043013;27;124757;-73
2023/01/29 08:14:34;;;;;;;;;;;2.70;85.00;;;3.24;52.69;99863.78;5044157;27;124700;-75
2023/01/29 08:17:00;;;;;;;;;;;2.70;85.10;;;3.26;52.58;99862.47;5026082;27;113499;-75
2023/01/29 08:19:26;;;;;;;;;;;2.70;85.00;;;3.27;52.77;99863.31;5018993;27;111576;-74
2023/01/29 08:21:53;;;;;;;;;;;4.20;86.30;;;3.28;52.80;99865.81;5042208;27;124682;-72
2023/01/29 08:24:19;;;;;;;;;;;2.70;84.90;;;3.29;52.83;99870.19;5039349;27;123931;-72
2023/01/29 08:26:45;;;;;;;;;;;2.80;85.00;;;3.34;52.78;99874.13;5028855;27;113815;-72
2023/01/29 08:29:12;;;;;;;;;;;2.80;84.90;;;3.35;52.59;99879.34;5040089;27;113680;-73
2023/01/29 08:31:38;;;;;;;;;;;2.80;84.90;;;3.39;52.47;99880.53;5049757;27;124836;-73
2023/01/29 08:34:05;;;;;;;;;;;2.90;84.90;;;3.41;52.39;99880.28;5031132;27;123927;-73
2023/01/29 08:36:31;;;;;;;;;;;2.90;84.80;;;3.41;52.16;99877.53;5037204;27;115364;-73
2023/01/29 08:38:57;;;;;;;;;;;2.90;84.60;;;3.42;52.22;99882.78;5047800;27;114805;-73
2023/01/29 08:41:23;;;;;;;;;;;2.90;84.70;;;3.45;52.34;99879.56;5032936;27;124129;-73
2023/01/29 08:43:50;;;;;;;;;;;2.90;84.70;;;3.47;52.23;99885.63;5009810;27;122823;-74
2023/01/29 08:46:16;;;;;;;;;;;2.90;84.70;;;3.50;52.04;99887.06;5040427;27;114438;-73
2023/01/29 08:48:42;;;;;;;;;;;2.90;84.70;;;3.51;52.18;99886.81;5004200;28;113741;-74
2023/01/29 08:51:08;;;;;;;;;;;3.00;84.70;;;3.52;51.95;99891.22;5028509;27;124802;-73
2023/01/29 08:53:35;;;;;;;;;;;3.00;84.60;;;3.54;51.82;99897.25;5020694;28;124081;-71
2023/01/29 08:56:01;;;;;;;;;;;3.00;84.60;;;3.55;51.76;99892.63;5009851;28;114900;-72
2023/01/29 08:58:27;;;;;;;;;;;3.10;84.60;;;3.56;52.19;99894.28;4999935;28;114040;-71
2023/01/29 09:00:53;;;;;;;;;;;3.00;84.40;;;3.54;51.93;99889.03;4993447;28;123257;-71
2023/01/29 09:03:20;;;;;;;;;;;3.00;84.30;;;3.56;51.91;99882.53;5020541;27;124505;-71
2023/01/29 09:05:46;;;;;;;;;;;3.00;85.00;;;3.56;52.08;99888.00;5017340;28;114615;-71
2023/01/29 09:08:12;;;;;;;;;;;3.10;84.40;;;3.58;51.90;99885.88;5013858;28;113199;-71
2023/01/29 09:10:38;;;;;;;;;;;3.10;84.40;;;3.63;52.04;99888.72;5017678;28;124289;-71
2023/01/29 09:13:05;;;;;;;;;;;3.10;84.30;;;3.67;51.52;99893.44;4979457;28;123798;-71
2023/01/29 09:15:31;;;;;;;;;;;3.10;84.30;;;3.72;51.71;99899.00;5015878;28;114476;-71
2023/01/29 09:18:02;;;;;;;;;;;3.20;84.30;;;3.78;52.15;99902.69;5011988;28;113763;-71
2023/01/29 09:20:28;;;;;;;;;;;3.20;84.20;;;3.81;51.12;99891.25;5022927;28;124473;-72
2023/01/29 09:22:55;;;;;;;;;;;3.30;84.20;;;3.83;51.26;99891.84;5021537;28;123497;-71
2023/01/29 09:25:21;;;;;;;;;;;3.30;83.90;;;3.83;51.07;99889.13;5015008;28;115456;-71
2023/01/29 09:27:48;;;;;;;;;;;3.30;83.80;;;3.84;51.69;99901.75;4996138;28;114941;-72
2023/01/29 09:30:16;;;;;;;;;;;3.40;83.80;;;3.84;51.07;99904.47;5014112;28;124299;-71
2023/01/29 09:32:42;;;;;;;;;;;3.30;83.60;;;3.86;51.41;99896.84;5013229;28;123578;-71
2023/01/29 09:35:09;;;;;;;;;;;3.30;83.50;;;3.88;50.92;99905.63;5018564;28;114103;-71
2023/01/29 09:37:35;;;;;;;;;;;3.30;83.50;;;3.90;51.54;99906.25;4995045;28;113722;-71
2023/01/29 09:40:02;;;;;;;;;;;3.40;83.50;;;3.96;51.69;99904.44;4995858;28;124122;-71
2023/01/29 09:42:35;;;;;;;;;;;3.40;83.60;;;4.01;51.12;99898.25;4978637;28;123383;-71
2023/01/29 09:45:15;;;;;;;;;;;3.40;83.50;;;3.98;51.09;99889.44;5002951;28;115031;-71
2023/01/29 09:47:43;;;;;;;;;;;3.40;83.40;;;3.97;51.12;99889.69;5009840;28;112815;-71
2023/01/29 09:50:16;;;;;;;;;;;3.40;83.60;;;3.99;50.89;99882.06;5018425;28;124031;-71
2023/01/29 09:52:51;;;;;;;;;;;3.40;83.70;;;3.98;52.04;99877.69;5001788;28;123923;-72
2023/01/29 09:55:28;;;;;;;;;;;3.30;84.10;;;4.01;52.54;99870.91;4999081;28;115027;-71
2023/01/29 09:57:57;;;;;;;;;;;3.40;85.80;;;4.04;52.49;99862.22;4983099;28;112826;-71
2023/01/29 10:00:25;;;;;;;;;;;3.40;85.60;;;4.06;51.84;99851.88;4998223;28;124402;-71
2023/01/29 10:03:24;;;;;;;;;;;3.40;84.80;;;4.11;51.63;99847.31;5000726;28;123791;-72
2023/01/29 10:05:53;;;;;;;;;;;3.50;84.80;;;4.11;51.61;99832.78;4996120;28;113286;-72
2023/01/29 10:08:59;;;;;;;;;;;3.50;84.20;;;4.21;52.28;99830.25;5008240;28;113114;-71
2023/01/29 10:11:42;;;;;;;;;;;3.60;84.70;;;4.33;51.25;99825.56;4996344;28;124206;-72
2023/01/29 10:14:29;;;;;;;;;;;3.70;84.40;;;4.39;51.62;99827.31;5021743;28;124639;-72
2023/01/29 10:17:35;;;;;;;;;;;3.70;84.10;;;4.46;51.42;99816.22;5005950;28;115094;-72
2023/01/29 10:20:19;;;;;;;;;;;3.80;83.80;;;4.52;50.52;99817.16;5008748;28;114902;-73
2023/01/29 10:23:00;;;;;;;;;;;3.90;83.80;;;4.62;50.58;99820.03;5018896;28;123400;-73
2023/01/29 10:25:26;;;;;;;;;;;4.00;83.70;;;4.67;50.57;99822.03;5024556;28;122989;-73
2023/01/29 10:27:55;;;;;;;;;;;4.10;83.50;;;4.76;50.49;99826.84;5009693;28;114335;-76
2023/01/29 10:30:32;;;;;;;;;;;4.10;83.30;;;4.83;50.16;99826.66;5026974;28;113640;-74
2023/01/29 10:33:02;;;;;;;;;;;4.20;83.20;;;4.87;49.93;99836.88;5003039;28;123127;-74
2023/01/29 10:35:53;;;;;;;;;;;4.20;82.80;;;4.93;49.70;99843.28;5009837;27;123912;-76
2023/01/29 10:38:32;;;;;;;;;;;4.30;82.70;;;4.95;49.50;99824.69;5012339;28;114203;-74
2023/01/29 10:41:10;;;;;;;;;;;4.00;82.30;;;5.00;49.46;99826.69;5025489;27;112586;-73
2023/01/29 10:43:58;;;;;;;;;;;4.40;82.40;;;5.04;49.91;99827.81;5035384;27;124324;-75
2023/01/29 10:46:46;;;;;;;;;;;4.50;82.20;;;5.03;49.77;99840.69;5017029;27;122949;-77
2023/01/29 10:49:23;;;;;;;;;;;4.50;82.00;;;5.04;49.47;99833.31;5015943;27;113383;-73
2023/01/29 10:52:19;;;;;;;;;;;4.50;81.90;;;5.07;49.12;99827.31;5041402;27;113924;-73
2023/01/29 10:55:14;;;;;;;;;;;4.50;81.80;;;5.08;49.46;99812.56;5034746;27;124153;-73
2023/01/29 10:58:14;;;;;;;;;;;4.50;81.60;;;5.07;48.89;99821.84;5012026;27;123771;-73
2023/01/29 11:00:41;;;;;;;;;;;4.50;81.40;;;5.03;48.85;99821.53;5020655;27;114315;-74
2023/01/29 11:03:17;;;;;;;;;;;4.50;81.40;;;5.07;48.71;99827.31;5047208;27;113589;-73
2023/01/29 11:05:50;;;;;;;;;;;4.60;81.40;;;5.08;48.68;99823.53;5034693;27;124863;-73
2023/01/29 11:08:20;;;;;;;;;;;4.60;81.20;;;5.11;49.14;99827.66;5020225;27;123099;-74
2023/01/29 11:11:16;;;;;;;;;;;4.60;81.10;;;5.15;49.26;99818.66;5009557;27;115023;-73
2023/01/29 11:14:05;;;;;;;;;;;4.60;81.20;;;5.18;49.31;99826.38;4994116;27;113507;-73
2023/01/29 11:16:40;;;;;;;;;;;4.60;81.10;;;5.23;48.82;99826.47;5013879;27;123377;-73
2023/01/29 11:19:06;;;;;;;;;;;4.70;81.20;;;5.27;48.73;99811.19;5024261;28;124740;-73
2023/01/29 11:21:54;;;;;;;;;;;4.70;81.20;;;5.34;47.92;99811.00;5012995;28;114612;-73
2023/01/29 11:24:20;;;;;;;;;;;4.70;80.50;;;5.36;48.22;99803.34;5036899;27;115574;-73
2023/01/29 11:26:48;;;;;;;;;;;4.80;80.80;;;5.38;48.69;99800.38;5038774;27;124141;-74
2023/01/29 11:29:37;;;;;;;;;;;4.80;80.60;;;5.41;48.04;99802.59;4996456;28;123340;-76
2023/01/29 11:32:11;;;;;;;;;;;4.90;80.50;;;5.42;48.28;99796.03;5002242;28;113113;-74
2023/01/29 11:35:04;;;;;;;;;;;4.90;80.40;;;5.46;47.75;99780.75;4989553;27;112279;-74
2023/01/29 11:37:39;;;;;;;;;;;4.80;80.20;;;5.48;47.82;99778.56;5014564;28;124381;-73
2023/01/29 11:40:18;;;;;;;;;;;5.00;80.40;;;5.52;48.25;99779.72;4984374;28;123858;-73
2023/01/29 11:42:45;;;;;;;;;;;5.00;80.30;;;5.51;47.93;99776.16;5014963;28;114538;-73
2023/01/29 11:45:31;;;;;;;;;;;5.00;80.20;;;5.57;48.13;99771.56;5015047;27;113901;-73
2023/01/29 11:47:57;;;;;;;;;;;5.00;80.10;;;5.58;48.60;99761.41;5007834;27;124196;-73
2023/01/29 11:50:26;;;;;;;;;;;5.10;80.10;;;5.62;48.04;99770.81;5045249;27;123258;-73
2023/01/29 11:52:53;;;;;;;;;;;5.10;80.10;;;5.64;47.96;99763.97;5021851;27;115003;-73
2023/01/29 11:55:32;;;;;;;;;;;5.10;80.00;;;5.67;48.06;99774.44;5036320;27;114350;-73
2023/01/29 11:58:05;;;;;;;;;;;5.20;79.80;;;5.66;47.57;99770.00;5023542;27;124343;-74
2023/01/29 12:00:33;;;;;;;;;;;5.10;79.50;;;5.64;47.35;99772.19;5039470;27;125113;-73
2023/01/29 12:03:21;;;;;;;;;;;5.20;79.50;;;5.68;47.05;99767.84;5021758;27;114608;-74
2023/01/29 12:06:00;;;;;;;;;;;5.20;79.50;;;5.70;47.73;99746.50;5002150;27;113409;-75
2023/01/29 12:08:31;;;;;;;;;;;5.20;79.50;;;5.70;47.90;99748.41;5037644;27;124428;-74
2023/01/29 12:11:22;;;;;;;;;;;5.20;79.30;;;5.71;47.25;99733.59;5029198;27;123876;-74
2023/01/29 12:14:03;;;;;;;;;;;5.20;79.10;;;5.73;47.04;99723.22;4988420;27;112945;-74
2023/01/29 12:16:38;;;;;;;;;;;5.20;79.20;;;5.78;47.52;99716.94;5018616;27;112896;-74